Monday, August 20, 2018, 1:17 AM EDT
Back to Local

KHUL, Houlton Int'l Airport

Location: Houlton, ME, United States Lat: 46.117
Local Time: 1:17 AM EDT ( 5:17 GMT) Lon: -67.8
Time Zone: US/Eastern Elev: 492 ft

Show me the last for .
Show Decoded

2018-08-20 00:53 METAR KHUL 200453Z AUTO 12008KT 10SM CLR 15/12 A3018 RMK AO2 SLP219 T01500117
                 402330089 =
2018-08-19 23:53 METAR KHUL 200353Z AUTO 12008KT 10SM CLR 16/12 A3018 RMK AO2 SLP219 T01560117 =
2018-08-19 22:53 METAR KHUL 200253Z AUTO 11007KT 10SM CLR 16/11 A3017 RMK AO2 SLP217 T01610106
                 51010 =
2018-08-19 21:53 METAR KHUL 200153Z AUTO 11007KT 10SM CLR 17/11 A3017 RMK AO2 SLP216 T01670106 =
2018-08-19 20:53 METAR KHUL 200053Z AUTO 10005KT 10SM CLR 16/13 A3017 RMK AO2 SLP216 T01560128 =
2018-08-19 19:53 METAR KHUL 192353Z AUTO 10003KT 10SM CLR 15/14 A3014 RMK AO2 SLP209 T01500139
                 10233 20150 53015 =
2018-08-19 18:53 METAR KHUL 192253Z AUTO 00000KT 10SM CLR 18/16 A3013 RMK AO2 SLP204 T01780161 =
2018-08-19 17:53 METAR KHUL 192153Z AUTO 07003KT 10SM CLR 22/13 A3011 RMK AO2 SLP196 T02170133 =
2018-08-19 16:53 METAR KHUL 192053Z AUTO 09005KT 10SM FEW055 22/13 A3010 RMK AO2 SLP194 T02220128
                 56001 =
2018-08-19 15:53 METAR KHUL 191953Z AUTO 11005KT 10SM FEW050 23/13 A3010 RMK AO2 SLP194 T02330128
                 =
2018-08-19 14:53 METAR KHUL 191853Z AUTO 08006KT 10SM BKN048 22/12 A3010 RMK AO2 SLP194 T02220122
                 =
2018-08-19 13:53 METAR KHUL 191753Z AUTO 10008KT 060V130 10SM CLR 23/13 A3010 RMK AO2 SLP195
                 T02280128 10228 20139 53000 =
2018-08-19 12:53 METAR KHUL 191653Z AUTO 08007KT 040V120 10SM FEW040 22/13 A3010 RMK AO2 SLP193
                 T02220133 =
2018-08-19 11:53 METAR KHUL 191553Z AUTO 03006G18KT 10SM FEW029 22/15 A3011 RMK AO2 SLP195
                 T02170150 =
2018-08-19 10:53 METAR KHUL 191453Z AUTO 09008KT 10SM CLR 20/14 A3010 RMK AO2 SLP195 T02000144
                 51009 =
2018-08-19 09:53 METAR KHUL 191353Z AUTO 02007KT 10SM CLR 18/14 A3010 RMK AO2 SLP195 T01830144 =
2018-08-19 08:53 METAR KHUL 191253Z AUTO 02005KT 10SM CLR 16/14 A3009 RMK AO2 SLP190 T01610144 =
2018-08-19 07:53 METAR KHUL 191153Z AUTO 02004KT 10SM CLR 14/13 A3008 RMK AO2 SLP186 T01390133
                 10139 20089 51022 =
2018-08-19 06:53 METAR KHUL 191053Z AUTO 00000KT 7SM CLR 11/11 A3006 RMK AO2 SLP179 T01110111 =
2018-08-19 06:40 METAR KHUL 191040Z AUTO 00000KT 4SM BR CLR 11/11 A3006 RMK AO2 T01060106 =
2018-08-19 06:31 METAR KHUL 191031Z AUTO 00000KT 2SM BR CLR 10/10 A3005 RMK AO2 T01000100 =
2018-08-19 06:24 METAR KHUL 191024Z AUTO 00000KT 1/2SM FG CLR 10/10 A3005 RMK AO2 T01000100 =
2018-08-19 05:53 METAR KHUL 190953Z AUTO 00000KT M1/4SM FG VV002 09/09 A3004 RMK AO2 SLP172
                 T00940094 =
2018-08-19 04:57 METAR KHUL 190857Z AUTO 00000KT 3/4SM BR VV002 09/09 A3001 RMK AO2 T00940094 =
2018-08-19 04:55 METAR KHUL 190855Z AUTO 00000KT 1 1/2SM BR BKN002 10/10 A3001 RMK AO2 VIS 1/4V5
                 T01000100 =
2018-08-19 04:53 METAR KHUL 190853Z AUTO 00000KT 4SM BR BKN002 10/10 A3001 RMK AO2 SLP163
                 T01000100 53017 =
2018-08-19 04:46 METAR KHUL 190846Z AUTO 00000KT 3SM BR BKN002 09/09 A3001 RMK AO2 T00940094 =
2018-08-19 04:44 METAR KHUL 190844Z AUTO 00000KT 2SM BR SCT002 09/09 A3001 RMK AO2 VIS 1/2V5
                 T00940094 =
2018-08-19 03:53 METAR KHUL 190753Z AUTO 00000KT 1/2SM FG VV002 11/11 A2999 RMK AO2 SLP155
                 T01060106 =
2018-08-19 03:45 METAR KHUL 190745Z AUTO 00000KT 3/4SM BR VV002 10/10 A2998 RMK AO2 VIS 1/4V2 1/2
                 T01000100 =
2018-08-19 03:26 METAR KHUL 190726Z AUTO 00000KT 1SM BR VV002 10/10 A2998 RMK AO2 VIS 1/2V3
                 T01000100 =
2018-08-19 03:08 METAR KHUL 190708Z AUTO 00000KT 1/4SM FG VV002 11/11 A2997 RMK AO2 T01060106 =
2018-08-19 03:00 METAR KHUL 190700Z AUTO 00000KT 1SM BR VV002 11/11 A2997 RMK AO2 T01060106 =
2018-08-19 02:53 METAR KHUL 190653Z AUTO 00000KT 1/2SM FG SCT002 BKN055 11/11 A2997 RMK AO2
                 SLP149 T01060106 =
2018-08-19 02:50 METAR KHUL 190650Z AUTO 00000KT 3/4SM BR SCT002 BKN055 11/11 A2997 RMK AO2 VIS
                 1/4V5 =
2018-08-19 02:47 METAR KHUL 190647Z AUTO 00000KT 1 3/4SM BR SCT002 BKN050 BKN060 11/11 A2997 RMK
                 AO2 VIS 3/4V5 =
2018-08-19 02:22 METAR KHUL 190622Z AUTO 00000KT 3/4SM BR SCT002 BKN048 BKN055 12/12 A2997 RMK
                 AO2 T01170117 =
2018-08-19 01:53 METAR KHUL 190553Z AUTO 00000KT 1/2SM FG VV002 11/11 A2996 RMK AO2 SLP146
                 T01110111 10161 20111 53010 =
2018-08-19 01:30 METAR KHUL 190530Z AUTO 00000KT 3/4SM BR VV002 12/12 A2996 RMK AO2 VIS 1/4V5
                 T01170117 =
2018-08-19 01:28 METAR KHUL 190528Z AUTO 00000KT 1 1/4SM BR CLR 12/12 A2996 RMK AO2 VIS 1/4V5
                 T01220122 =

Support USWX by starting your Amazon purchase here.